createdAt,value
2022-09-17T00:00:10.298Z,98.45
2022-09-17T00:00:41.255Z,98.76
2022-09-17T00:01:12.176Z,98.96
2022-09-17T00:01:43.249Z,98.71
2022-09-17T00:02:14.164Z,98.51
2022-09-17T00:02:45.002Z,98.41
2022-09-17T00:03:15.370Z,98.51
2022-09-17T00:03:45.825Z,98.92
2022-09-17T00:04:17.107Z,99.63
2022-09-17T00:05:34.147Z,99.99
2022-09-17T00:06:04.619Z,99.89
2022-09-17T00:06:35.542Z,99.38
2022-09-17T00:07:06.471Z,99.84
2022-09-17T00:07:37.371Z,99.99
2022-09-17T00:08:08.493Z,99.89
2022-09-17T00:08:39.104Z,99.59
2022-09-17T00:09:09.588Z,98.96
2022-09-17T00:09:40.552Z,98.41
2022-09-17T00:10:11.478Z,97.99
2022-09-17T00:10:42.465Z,97.94
2022-09-17T00:11:13.649Z,98.41
2022-09-17T00:11:44.142Z,98.66
2022-09-17T00:12:15.114Z,98.51
2022-09-17T00:12:46.024Z,98.82
2022-09-17T00:13:16.940Z,98.71
2022-09-17T00:13:47.891Z,98.30
2022-09-17T00:14:19.090Z,98.66
2022-09-17T00:14:49.593Z,98.92
2022-09-17T00:15:20.583Z,99.02
2022-09-17T00:15:51.606Z,98.57
2022-09-17T00:16:22.192Z,98.46
2022-09-17T00:16:52.628Z,98.92
2022-09-17T00:17:23.750Z,98.66
2022-09-17T00:17:54.255Z,98.51
2022-09-17T00:18:25.166Z,98.41
2022-09-17T00:18:56.077Z,97.89
2022-09-17T00:19:26.995Z,97.53
2022-09-17T00:19:57.920Z,97.94
2022-09-17T00:20:29.035Z,97.48
2022-09-17T00:20:59.530Z,97.53
2022-09-17T00:21:30.452Z,97.73
2022-09-17T00:22:01.435Z,97.94
2022-09-17T00:22:32.318Z,97.94
2022-09-17T00:23:03.306Z,97.69
2022-09-17T00:23:34.478Z,98.20
2022-09-17T00:24:05.090Z,98.45
2022-09-17T00:24:35.506Z,98.61
2022-09-17T00:25:06.473Z,98.92
2022-09-17T00:25:37.467Z,98.92
2022-09-17T00:26:08.426Z,98.14
2022-09-17T00:26:39.620Z,97.22
2022-09-17T00:27:10.106Z,97.22
2022-09-17T00:27:41.112Z,97.54
2022-09-17T00:28:12.036Z,96.87
2022-09-17T00:28:42.966Z,97.07
2022-09-17T00:29:13.897Z,97.48
2022-09-17T00:29:45.004Z,97.44
2022-09-17T00:30:15.508Z,96.50
2022-09-17T00:30:46.442Z,95.78
2022-09-17T00:31:17.437Z,96.20
2022-09-17T00:31:47.961Z,96.15
2022-09-17T00:32:18.391Z,96.15
2022-09-17T00:32:49.507Z,96.15
2022-09-17T00:33:20.094Z,96.60
2022-09-17T00:33:50.514Z,97.23
2022-09-17T00:34:21.499Z,97.28
2022-09-17T00:34:52.411Z,97.28
2022-09-17T00:35:23.403Z,97.17
2022-09-17T00:35:54.535Z,97.02
2022-09-17T00:36:25.065Z,97.28
2022-09-17T00:36:55.482Z,97.53
2022-09-17T00:37:26.415Z,96.91
2022-09-17T00:37:57.331Z,95.32
2022-09-17T00:38:28.329Z,95.68
2022-09-17T00:38:59.451Z,95.79
2022-09-17T00:39:30.074Z,96.19
2022-09-17T00:40:00.552Z,95.43
2022-09-17T00:40:31.097Z,95.23
2022-09-17T00:41:01.584Z,95.64
2022-09-17T00:41:32.553Z,95.64
2022-09-17T00:42:03.670Z,96.04
2022-09-17T00:42:34.155Z,96.35
2022-09-17T00:43:05.076Z,96.77
2022-09-17T00:43:35.995Z,97.07
2022-09-17T00:44:06.990Z,97.48
2022-09-17T00:44:37.896Z,97.69
2022-09-17T00:45:09.013Z,97.33
2022-09-17T00:45:40.161Z,96.56
2022-09-17T00:46:10.182Z,96.97
2022-09-17T00:46:40.777Z,96.56
2022-09-17T00:47:11.224Z,96.04
2022-09-17T00:47:42.137Z,96.10
2022-09-17T00:48:13.243Z,96.62
2022-09-17T00:48:43.736Z,97.07
2022-09-17T00:49:14.634Z,97.13
2022-09-17T00:49:45.621Z,97.17
2022-09-17T00:50:16.592Z,97.48
2022-09-17T00:50:47.570Z,97.17
2022-09-17T00:51:18.677Z,96.56
2022-09-17T00:51:49.148Z,96.82
2022-09-17T00:52:20.058Z,96.77
2022-09-17T00:52:50.953Z,96.31
2022-09-17T00:53:21.868Z,96.35
2022-09-17T00:53:52.870Z,95.79
2022-09-17T00:54:23.957Z,96.04
2022-09-17T00:54:54.571Z,96.41
2022-09-17T00:55:24.992Z,96.31
2022-09-17T00:55:55.929Z,96.45
2022-09-17T00:56:26.919Z,96.51
2022-09-17T00:56:57.899Z,96.70
2022-09-17T00:57:29.083Z,96.62
2022-09-17T00:57:59.569Z,95.69
2022-09-17T00:58:30.472Z,95.53
2022-09-17T00:59:01.407Z,96.04
2022-09-17T00:59:32.333Z,96.66
2022-09-17T01:00:03.250Z,97.13
2022-09-17T01:00:34.445Z,96.77
2022-09-17T01:01:05.046Z,96.62
2022-09-17T01:01:35.568Z,97.03
2022-09-17T01:02:06.462Z,97.13
2022-09-17T01:02:36.977Z,96.92
2022-09-17T01:03:07.888Z,96.87
2022-09-17T01:03:38.990Z,97.23
2022-09-17T01:04:09.475Z,96.82
2022-09-17T01:04:40.398Z,96.31
2022-09-17T01:05:11.325Z,96.35
2022-09-17T01:05:42.331Z,95.90
2022-09-17T01:06:13.255Z,96.20
2022-09-17T01:06:44.426Z,96.87
2022-09-17T01:07:14.901Z,96.82
2022-09-17T01:07:45.804Z,97.22
2022-09-17T01:08:16.723Z,97.07
2022-09-17T01:08:47.723Z,97.33
2022-09-17T01:09:18.641Z,96.66
2022-09-17T01:09:49.761Z,96.82
2022-09-17T01:10:20.366Z,97.58
2022-09-17T01:10:50.789Z,97.44
2022-09-17T01:11:21.785Z,96.97
2022-09-17T01:11:52.698Z,97.07
2022-09-17T01:12:23.661Z,96.56
2022-09-17T01:12:54.847Z,97.07
2022-09-17T01:13:25.332Z,97.44
2022-09-17T01:13:55.774Z,97.17
2022-09-17T01:14:26.801Z,97.07
2022-09-17T01:14:57.219Z,96.97
2022-09-17T01:15:28.142Z,96.87
2022-09-17T01:15:59.444Z,97.48
2022-09-17T01:16:30.196Z,97.64
2022-09-17T01:17:00.713Z,97.58
2022-09-17T01:17:31.674Z,97.38
2022-09-17T01:18:02.585Z,97.42
2022-09-17T01:18:33.566Z,97.54
2022-09-17T01:19:04.750Z,97.89
2022-09-17T01:19:35.242Z,98.30
2022-09-17T01:20:06.230Z,98.61
2022-09-17T01:20:37.161Z,98.61
2022-09-17T01:21:08.078Z,98.51
2022-09-17T01:21:39.074Z,98.82
2022-09-17T01:22:10.180Z,99.17
2022-09-17T01:22:40.649Z,99.43
2022-09-17T01:23:11.576Z,99.08
2022-09-17T01:23:42.554Z,98.61
2022-09-17T01:24:13.471Z,98.46
2022-09-17T01:24:44.393Z,98.51
2022-09-17T01:25:15.575Z,98.46
2022-09-17T01:25:46.190Z,98.61
2022-09-17T01:26:16.609Z,98.77
2022-09-17T01:26:47.587Z,98.77
2022-09-17T01:27:18.479Z,99.12
2022-09-17T01:27:49.438Z,98.82
2022-09-17T01:28:20.633Z,98.16
2022-09-17T01:28:51.120Z,97.69
2022-09-17T01:29:22.046Z,97.07
2022-09-17T01:29:52.966Z,97.58
2022-09-17T01:30:23.884Z,98.10
2022-09-17T01:30:54.823Z,97.94
2022-09-17T01:31:26.065Z,97.42
2022-09-17T01:31:56.575Z,97.42
2022-09-17T01:32:27.530Z,97.38
2022-09-17T01:32:58.484Z,97.63
2022-09-17T01:33:29.401Z,97.99
2022-09-17T01:34:00.312Z,98.30
2022-09-17T01:34:31.474Z,97.95
2022-09-17T01:35:01.974Z,98.10
2022-09-17T01:35:32.958Z,98.30
2022-09-17T01:36:03.956Z,98.61
2022-09-17T01:36:34.453Z,99.07
2022-09-17T01:37:05.366Z,99.33
2022-09-17T01:37:36.480Z,98.97
2022-09-17T01:38:06.999Z,98.76
2022-09-17T01:38:37.426Z,98.71
2022-09-17T01:39:08.344Z,98.82
2022-09-17T01:39:39.265Z,98.76
2022-09-17T01:40:10.289Z,98.45
2022-09-17T01:40:41.035Z,98.25
2022-09-17T01:41:11.636Z,98.41
2022-09-17T01:41:42.315Z,98.82
2022-09-17T01:42:13.315Z,98.30
2022-09-17T01:42:43.815Z,97.89
2022-09-17T01:43:14.764Z,98.14
2022-09-17T01:43:45.890Z,98.35
2022-09-17T01:44:16.377Z,98.14
2022-09-17T01:44:47.375Z,98.04
2022-09-17T01:45:18.290Z,98.66
2022-09-17T01:45:49.292Z,98.45
2022-09-17T01:46:20.385Z,98.25
2022-09-17T01:46:51.377Z,98.41
2022-09-17T01:47:21.881Z,98.45
2022-09-17T01:47:52.796Z,98.66
2022-09-17T01:48:23.765Z,98.71
2022-09-17T01:48:54.690Z,98.96
2022-09-17T01:49:25.675Z,99.27
2022-09-17T01:49:56.783Z,99.74
2022-09-17T01:50:27.270Z,99.95
2022-09-17T01:50:58.193Z,99.99
2022-09-17T01:51:29.124Z,99.99
2022-09-17T01:52:00.056Z,99.99
2022-09-17T01:52:30.968Z,99.99
2022-09-17T01:53:02.154Z,99.54
2022-09-17T01:53:32.629Z,99.22
2022-09-17T01:54:03.590Z,99.38
2022-09-17T01:54:37.102Z,99.48
2022-09-17T01:55:05.174Z,99.48
2022-09-17T01:55:36.075Z,99.38
2022-09-17T01:56:07.265Z,98.55
2022-09-17T01:56:37.878Z,97.73
2022-09-17T01:57:08.295Z,97.28
2022-09-17T01:57:39.287Z,97.57
2022-09-17T01:58:10.217Z,97.53
2022-09-17T01:58:41.175Z,97.94
2022-09-17T01:59:12.354Z,98.35
2022-09-17T01:59:42.837Z,98.91
2022-09-17T02:00:13.761Z,99.27
2022-09-17T02:00:44.720Z,99.33
2022-09-17T02:01:15.804Z,99.48
2022-09-17T02:01:46.255Z,99.27
2022-09-17T02:02:17.448Z,98.76
2022-09-17T02:02:47.988Z,98.61
2022-09-17T02:03:18.957Z,99.02
2022-09-17T02:03:49.910Z,99.07
2022-09-17T02:04:20.828Z,98.35
2022-09-17T02:04:51.745Z,98.10
2022-09-17T02:05:22.827Z,98.14
2022-09-17T02:05:53.313Z,98.76
2022-09-17T02:06:24.293Z,99.02
2022-09-17T02:06:55.212Z,99.52
2022-09-17T02:07:26.175Z,99.68
2022-09-17T02:07:57.089Z,99.48
2022-09-17T02:08:28.191Z,99.27
2022-09-17T02:08:58.748Z,98.66
2022-09-17T02:09:29.535Z,98.25
2022-09-17T02:10:00.525Z,98.45
2022-09-17T02:10:31.016Z,98.14
2022-09-17T02:11:01.971Z,97.63
2022-09-17T02:11:33.161Z,97.73
2022-09-17T02:12:03.779Z,97.94
2022-09-17T02:12:34.550Z,97.94
2022-09-17T02:13:05.470Z,97.83
2022-09-17T02:13:36.389Z,97.83
2022-09-17T02:14:07.350Z,97.73
2022-09-17T02:14:38.460Z,98.14
2022-09-17T02:15:08.936Z,98.80
2022-09-17T02:15:39.909Z,98.86
2022-09-17T02:16:10.858Z,98.92
2022-09-17T02:16:41.795Z,98.80
2022-09-17T02:17:12.792Z,98.25
2022-09-17T02:17:43.942Z,98.39
2022-09-17T02:18:14.438Z,98.04
2022-09-17T02:18:44.927Z,97.99
2022-09-17T02:19:15.878Z,98.29
2022-09-17T02:19:46.785Z,98.29
2022-09-17T02:20:22.193Z,98.41
2022-09-17T02:20:48.624Z,98.66
2022-09-17T02:21:19.533Z,99.11
2022-09-17T02:21:50.521Z,99.38
2022-09-17T02:22:21.443Z,98.66
2022-09-17T02:22:52.356Z,97.79
2022-09-17T02:23:23.460Z,97.53
2022-09-17T02:23:53.952Z,97.78
2022-09-17T02:24:24.442Z,98.25
2022-09-17T02:24:55.367Z,97.83
2022-09-17T02:25:26.369Z,98.08
2022-09-17T02:25:57.365Z,98.04
2022-09-17T02:26:28.056Z,97.88
2022-09-17T02:26:58.548Z,97.88
2022-09-17T02:27:29.594Z,97.94
2022-09-17T02:28:00.011Z,98.14
2022-09-17T02:28:30.936Z,97.99
2022-09-17T02:29:01.829Z,97.37
2022-09-17T02:29:32.992Z,97.16
2022-09-17T02:30:03.408Z,97.27
2022-09-17T02:30:34.324Z,97.47
2022-09-17T02:31:05.316Z,97.37
2022-09-17T02:31:35.846Z,97.22
2022-09-17T02:32:06.649Z,97.47
2022-09-17T02:32:37.836Z,97.67
2022-09-17T02:33:08.330Z,96.85
2022-09-17T02:33:39.251Z,96.70
2022-09-17T02:34:10.278Z,96.65
2022-09-17T02:34:40.737Z,96.44
2022-09-17T02:35:11.721Z,96.60
2022-09-17T02:35:42.842Z,96.44
2022-09-17T02:36:13.333Z,96.95
2022-09-17T02:36:44.228Z,97.16
2022-09-17T02:37:15.149Z,97.37
2022-09-17T02:37:46.066Z,97.37
2022-09-17T02:38:17.040Z,97.06
2022-09-17T02:38:48.242Z,97.16
2022-09-17T02:39:18.743Z,97.16
2022-09-17T02:39:49.817Z,96.85
2022-09-17T02:40:20.423Z,96.91
2022-09-17T02:40:50.921Z,97.31
2022-09-17T02:41:21.912Z,97.31
2022-09-17T02:41:53.080Z,97.47
2022-09-17T02:42:23.560Z,97.82
2022-09-17T02:42:54.662Z,97.67
2022-09-17T02:43:25.373Z,97.99
2022-09-17T02:43:56.298Z,98.25
2022-09-17T02:44:27.217Z,98.29
2022-09-17T02:44:58.408Z,98.08
2022-09-17T02:45:28.819Z,98.19
2022-09-17T02:45:59.813Z,98.44
2022-09-17T02:46:30.848Z,98.50
2022-09-17T02:47:01.313Z,98.29
2022-09-17T02:47:32.237Z,98.19
2022-09-17T02:48:03.421Z,98.08
2022-09-17T02:48:33.919Z,97.82
2022-09-17T02:49:04.358Z,97.16
2022-09-17T02:49:35.354Z,97.00
2022-09-17T02:50:06.313Z,97.10
2022-09-17T02:50:37.233Z,97.57
2022-09-17T02:51:08.344Z,97.88
2022-09-17T02:51:38.837Z,98.19
2022-09-17T02:52:09.760Z,98.44
2022-09-17T02:52:40.694Z,98.29
2022-09-17T02:53:11.717Z,97.97
2022-09-17T02:53:42.698Z,97.82
2022-09-17T02:54:13.886Z,98.13
2022-09-17T02:54:44.384Z,98.38
2022-09-17T02:55:15.343Z,98.50
2022-09-17T02:55:46.314Z,97.92
2022-09-17T02:56:17.284Z,97.41
2022-09-17T02:56:48.210Z,97.45
2022-09-17T02:57:19.320Z,97.66
2022-09-17T02:57:49.798Z,98.18
2022-09-17T02:58:20.844Z,98.75
2022-09-17T02:58:51.257Z,98.44
2022-09-17T02:59:22.171Z,98.59
2022-09-17T02:59:53.167Z,98.85
2022-09-17T03:00:24.338Z,98.85
2022-09-17T03:00:54.808Z,98.75
2022-09-17T03:01:25.266Z,98.54
2022-09-17T03:01:56.258Z,98.44
2022-09-17T03:02:26.840Z,98.33
2022-09-17T03:02:57.317Z,98.24
2022-09-17T03:03:28.429Z,98.33
2022-09-17T03:03:58.909Z,98.49
2022-09-17T03:04:29.825Z,98.24
2022-09-17T03:05:00.814Z,97.97
2022-09-17T03:05:31.779Z,97.92
2022-09-17T03:06:02.690Z,98.24
2022-09-17T03:06:33.809Z,98.18
2022-09-17T03:07:04.301Z,98.18
2022-09-17T03:07:34.830Z,98.33
2022-09-17T03:08:05.241Z,98.49
2022-09-17T03:08:36.166Z,98.59
2022-09-17T03:09:07.096Z,98.90
2022-09-17T03:09:38.194Z,98.69
2022-09-17T03:10:08.695Z,98.49
2022-09-17T03:10:39.187Z,98.44
2022-09-17T03:11:10.108Z,98.65
2022-09-17T03:11:41.098Z,98.75
2022-09-17T03:12:12.025Z,98.69
2022-09-17T03:12:43.152Z,98.65
2022-09-17T03:13:13.639Z,98.38
2022-09-17T03:13:44.752Z,97.92
2022-09-17T03:14:15.173Z,97.77
2022-09-17T03:14:46.102Z,97.82
2022-09-17T03:15:17.022Z,98.07
2022-09-17T03:15:48.173Z,98.43
2022-09-17T03:16:18.778Z,98.43
2022-09-17T03:16:49.225Z,98.02
2022-09-17T03:17:20.129Z,97.81
2022-09-17T03:17:53.406Z,98.07
2022-09-17T03:18:21.809Z,98.43
2022-09-17T03:18:52.929Z,98.59
2022-09-17T03:19:23.405Z,98.54
2022-09-17T03:19:54.306Z,98.84
2022-09-17T03:20:25.228Z,98.79
2022-09-17T03:20:56.189Z,98.84
2022-09-17T03:21:27.107Z,98.79
2022-09-17T03:21:58.215Z,98.59
2022-09-17T03:22:28.704Z,98.63
2022-09-17T03:22:59.690Z,98.59
2022-09-17T03:23:30.608Z,98.63
2022-09-17T03:24:01.517Z,98.79
2022-09-17T03:24:32.442Z,99.10
2022-09-17T03:25:03.564Z,99.31
2022-09-17T03:25:34.060Z,99.41
2022-09-17T03:26:05.023Z,99.31
2022-09-17T03:26:35.926Z,99.00
2022-09-17T03:27:06.918Z,99.00
2022-09-17T03:27:37.835Z,99.21
2022-09-17T03:28:09.014Z,99.72
2022-09-17T03:28:39.500Z,99.91
2022-09-17T03:29:10.602Z,99.51
2022-09-17T03:29:41.089Z,99.21
2022-09-17T03:30:12.080Z,99.25
2022-09-17T03:30:43.003Z,99.10
2022-09-17T03:31:14.208Z,98.79
2022-09-17T03:31:44.729Z,98.79
2022-09-17T03:32:15.251Z,98.90
2022-09-17T03:32:46.153Z,98.79
2022-09-17T03:33:17.071Z,98.69
2022-09-17T03:33:48.005Z,99.05
2022-09-17T03:34:19.192Z,99.05
2022-09-17T03:34:49.690Z,98.94
2022-09-17T03:35:20.673Z,99.05
2022-09-17T03:35:51.597Z,98.74
2022-09-17T03:36:22.575Z,98.63
2022-09-17T03:36:53.562Z,98.58
2022-09-17T03:37:24.672Z,98.43
2022-09-17T03:37:55.160Z,98.69
2022-09-17T03:38:26.078Z,99.05
2022-09-17T03:38:57.001Z,99.25
2022-09-17T03:39:27.917Z,99.66
2022-09-17T03:39:58.854Z,99.25
2022-09-17T03:40:30.102Z,99.10
2022-09-17T03:41:00.808Z,98.74
2022-09-17T03:41:31.811Z,98.53
2022-09-17T03:42:02.235Z,98.84
2022-09-17T03:42:33.224Z,99.15
2022-09-17T03:43:03.783Z,99.35
2022-09-17T03:43:34.961Z,99.66
2022-09-17T03:44:05.487Z,99.87
2022-09-17T03:44:36.038Z,99.93
2022-09-17T03:45:06.448Z,99.97
2022-09-17T03:45:37.359Z,99.15
2022-09-17T03:46:08.376Z,98.84
2022-09-17T03:46:39.095Z,98.22
2022-09-17T03:47:09.606Z,98.22
2022-09-17T03:47:40.532Z,98.33
2022-09-17T03:48:11.452Z,98.43
2022-09-17T03:48:42.366Z,98.18
2022-09-17T03:49:13.349Z,97.81
2022-09-17T03:49:44.575Z,97.91
2022-09-17T03:50:15.066Z,98.12
2022-09-17T03:50:45.980Z,98.37
2022-09-17T03:51:16.870Z,98.28
2022-09-17T03:51:47.839Z,98.53
2022-09-17T03:52:18.761Z,98.43
2022-09-17T03:52:49.870Z,98.02
2022-09-17T03:53:20.359Z,97.91
2022-09-17T03:53:51.290Z,97.77
2022-09-17T03:54:22.215Z,98.07
2022-09-17T03:54:53.128Z,97.45
2022-09-17T03:55:24.096Z,97.66
2022-09-17T03:55:55.205Z,98.06
2022-09-17T03:56:25.669Z,97.97
2022-09-17T03:56:56.634Z,97.56
2022-09-17T03:57:27.634Z,97.05
2022-09-17T03:57:58.119Z,97.24
2022-09-17T03:58:29.037Z,97.19
2022-09-17T03:59:00.165Z,97.25
2022-09-17T03:59:30.624Z,97.66
2022-09-17T04:00:01.694Z,98.12
2022-09-17T04:00:32.089Z,97.97
2022-09-17T04:01:02.994Z,98.02
2022-09-17T04:01:34.048Z,97.96
2022-09-17T04:02:04.884Z,97.87
2022-09-17T04:02:35.686Z,98.38
2022-09-17T04:03:06.314Z,98.38
2022-09-17T04:03:37.297Z,98.33
2022-09-17T04:04:08.274Z,98.28
2022-09-17T04:04:39.214Z,97.40
2022-09-17T04:05:10.319Z,96.94
2022-09-17T04:05:40.809Z,96.59
2022-09-17T04:06:11.742Z,96.84
2022-09-17T04:06:42.625Z,97.25
2022-09-17T04:07:13.602Z,97.40
2022-09-17T04:07:44.588Z,97.66
2022-09-17T04:08:15.765Z,97.71
2022-09-17T04:08:46.248Z,97.50
2022-09-17T04:09:17.183Z,97.30
2022-09-17T04:09:48.170Z,97.36
2022-09-17T04:10:19.085Z,96.58
2022-09-17T04:10:50.007Z,96.02
2022-09-17T04:11:21.126Z,95.96
2022-09-17T04:11:51.629Z,96.27
2022-09-17T04:12:22.590Z,96.33
2022-09-17T04:12:53.515Z,96.27
2022-09-17T04:13:24.420Z,97.05
2022-09-17T04:13:55.339Z,97.25
2022-09-17T04:14:26.516Z,97.66
2022-09-17T04:14:57.005Z,97.41
2022-09-17T04:15:28.044Z,97.36
2022-09-17T04:15:58.531Z,97.36
2022-09-17T04:16:29.134Z,97.77
2022-09-17T04:16:59.601Z,97.77
2022-09-17T04:17:30.761Z,97.56
2022-09-17T04:18:01.174Z,98.07
2022-09-17T04:18:32.079Z,98.59
2022-09-17T04:19:03.541Z,98.59
2022-09-17T04:19:34.036Z,98.28
2022-09-17T04:20:04.946Z,98.18
2022-09-17T04:20:36.069Z,97.77
2022-09-17T04:21:06.562Z,97.15
2022-09-17T04:21:37.550Z,97.36
2022-09-17T04:22:08.466Z,97.36
2022-09-17T04:22:39.421Z,97.45
2022-09-17T04:23:10.334Z,97.97
2022-09-17T04:23:41.485Z,97.81
2022-09-17T04:24:11.966Z,96.73
2022-09-17T04:24:42.880Z,96.33
2022-09-17T04:25:13.787Z,96.73
2022-09-17T04:25:44.771Z,96.11
2022-09-17T04:26:15.693Z,96.37
2022-09-17T04:26:46.807Z,96.89
2022-09-17T04:27:17.314Z,96.99
2022-09-17T04:27:47.805Z,97.50
2022-09-17T04:28:18.295Z,97.30
2022-09-17T04:28:49.426Z,97.15
2022-09-17T04:29:19.947Z,97.19
2022-09-17T04:29:51.047Z,96.64
2022-09-17T04:30:21.505Z,96.64
2022-09-17T04:30:52.620Z,96.43
2022-09-17T04:31:23.227Z,96.47
2022-09-17T04:31:53.748Z,96.58
2022-09-17T04:32:24.673Z,96.02
2022-09-17T04:32:55.841Z,95.86
2022-09-17T04:33:26.251Z,96.17
2022-09-17T04:33:57.256Z,96.73
2022-09-17T04:34:28.131Z,96.99
2022-09-17T04:34:59.066Z,97.30
2022-09-17T04:35:29.994Z,97.19
2022-09-17T04:36:01.111Z,97.09
2022-09-17T04:36:31.584Z,96.89
2022-09-17T04:37:02.477Z,97.19
2022-09-17T04:37:33.470Z,97.30
2022-09-17T04:38:03.951Z,97.09
2022-09-17T04:38:34.876Z,97.91
2022-09-17T04:39:05.995Z,96.89
2022-09-17T04:39:36.475Z,96.99
2022-09-17T04:40:08.267Z,97.09
2022-09-17T04:40:38.011Z,97.03
2022-09-17T04:41:08.519Z,97.19
2022-09-17T04:41:39.439Z,97.19
2022-09-17T04:42:10.563Z,96.72
2022-09-17T04:42:40.996Z,96.37
2022-09-17T04:43:11.910Z,96.37
2022-09-17T04:43:42.765Z,96.72
2022-09-17T04:44:13.687Z,97.28
2022-09-17T04:44:44.632Z,97.44
2022-09-17T04:45:15.677Z,97.50
2022-09-17T04:45:46.108Z,96.62
2022-09-17T04:46:17.198Z,96.42
2022-09-17T04:46:47.887Z,96.31
2022-09-17T04:47:18.773Z,96.31
2022-09-17T04:47:49.690Z,96.42
2022-09-17T04:48:20.813Z,96.56
2022-09-17T04:48:51.244Z,96.68
2022-09-17T04:49:22.125Z,97.24
2022-09-17T04:49:53.046Z,97.65
2022-09-17T04:50:23.911Z,97.86
2022-09-17T04:50:54.783Z,97.86
2022-09-17T04:51:25.835Z,97.75
2022-09-17T04:51:56.264Z,97.65
2022-09-17T04:52:30.869Z,97.80
2022-09-17T04:52:57.669Z,97.86
2022-09-17T04:53:28.575Z,97.65
2022-09-17T04:53:59.438Z,97.80
2022-09-17T04:54:30.492Z,97.86
2022-09-17T04:55:00.948Z,98.21
2022-09-17T04:55:31.831Z,98.06
2022-09-17T04:56:02.767Z,97.19
2022-09-17T04:56:33.617Z,97.49
2022-09-17T04:57:04.546Z,97.86
2022-09-17T04:57:35.597Z,97.75
2022-09-17T04:58:06.036Z,97.24
2022-09-17T04:58:36.955Z,97.24
2022-09-17T04:59:07.822Z,97.03
2022-09-17T04:59:38.762Z,97.24
2022-09-17T05:00:09.633Z,97.80
2022-09-17T05:00:40.757Z,98.06
2022-09-17T05:01:11.303Z,97.80
2022-09-17T05:01:41.867Z,97.44
2022-09-17T05:02:12.447Z,97.65
2022-09-17T05:02:42.953Z,97.86
2022-09-17T05:03:13.888Z,96.83
2022-09-17T05:03:45.015Z,96.00
2022-09-17T05:04:15.439Z,96.17
2022-09-17T05:04:46.366Z,96.31
2022-09-17T05:05:17.202Z,96.78
2022-09-17T05:05:48.148Z,96.06
2022-09-17T05:06:19.071Z,96.11
2022-09-17T05:06:50.126Z,96.31
2022-09-17T05:07:20.558Z,96.62
2022-09-17T05:07:51.430Z,96.89
2022-09-17T05:08:22.375Z,97.30
2022-09-17T05:08:53.273Z,97.61
2022-09-17T05:09:24.140Z,97.14
2022-09-17T05:09:55.289Z,97.34
2022-09-17T05:10:25.716Z,97.65
2022-09-17T05:10:56.591Z,97.71
2022-09-17T05:11:27.535Z,96.93
2022-09-17T05:11:58.407Z,97.19
2022-09-17T05:12:34.255Z,96.72
2022-09-17T05:13:00.227Z,96.27
2022-09-17T05:13:31.101Z,95.86
2022-09-17T05:14:02.026Z,96.21
2022-09-17T05:14:32.973Z,96.37
2022-09-17T05:15:03.924Z,96.37
2022-09-17T05:15:34.995Z,96.31
2022-09-17T05:16:05.545Z,96.68
2022-09-17T05:16:36.002Z,96.37
2022-09-17T05:17:07.017Z,96.78
2022-09-17T05:17:37.454Z,97.09
2022-09-17T05:18:08.318Z,97.14
2022-09-17T05:18:39.388Z,97.25
2022-09-17T05:19:09.821Z,97.61
2022-09-17T05:19:40.744Z,97.40
2022-09-17T05:20:11.636Z,97.19
2022-09-17T05:20:42.584Z,96.99
2022-09-17T05:21:13.453Z,96.68
2022-09-17T05:21:44.573Z,96.00
2022-09-17T05:22:19.546Z,95.71
2022-09-17T05:22:46.925Z,96.02
2022-09-17T05:23:16.795Z,96.12
2022-09-17T05:23:47.659Z,96.43
2022-09-17T05:24:18.744Z,96.68
2022-09-17T05:24:49.181Z,96.68
2022-09-17T05:25:20.037Z,96.53
2022-09-17T05:25:50.951Z,96.84
2022-09-17T05:26:21.887Z,97.05
2022-09-17T05:26:52.816Z,97.05
2022-09-17T05:27:23.872Z,97.19
2022-09-17T05:27:54.313Z,97.30
2022-09-17T05:28:25.176Z,97.19
2022-09-17T05:28:56.234Z,97.05
2022-09-17T05:29:27.002Z,96.78
2022-09-17T05:29:57.939Z,95.86
2022-09-17T05:30:29.007Z,96.27
2022-09-17T05:30:59.506Z,96.02
2022-09-17T05:31:30.040Z,96.17
2022-09-17T05:32:00.502Z,95.71
2022-09-17T05:32:31.551Z,95.55
2022-09-17T05:33:01.994Z,95.65
2022-09-17T05:33:33.125Z,95.45
2022-09-17T05:34:03.558Z,95.61
2022-09-17T05:34:34.472Z,95.40
2022-09-17T05:35:05.896Z,95.92
2022-09-17T05:35:36.075Z,96.22
2022-09-17T05:36:07.020Z,95.61
2022-09-17T05:36:38.159Z,95.20
2022-09-17T05:37:08.605Z,95.30
2022-09-17T05:37:39.544Z,95.75
2022-09-17T05:38:10.404Z,95.34
2022-09-17T05:38:41.287Z,95.20
2022-09-17T05:39:12.148Z,94.99
2022-09-17T05:39:43.266Z,95.25
2022-09-17T05:40:13.778Z,95.86
2022-09-17T05:40:44.240Z,95.40
2022-09-17T05:41:15.167Z,95.71
2022-09-17T05:41:46.030Z,95.45
2022-09-17T05:42:16.905Z,95.03
2022-09-17T05:42:48.041Z,94.77
2022-09-17T05:43:18.479Z,95.40
2022-09-17T05:43:49.338Z,95.81
2022-09-17T05:44:20.291Z,96.12
2022-09-17T05:44:51.272Z,95.81
2022-09-17T05:45:22.215Z,95.30
2022-09-17T05:45:53.282Z,95.09
2022-09-17T05:46:23.815Z,95.40
2022-09-17T05:46:54.299Z,95.05
2022-09-17T05:47:25.004Z,95.15
2022-09-17T05:47:55.982Z,95.15
2022-09-17T05:48:26.847Z,95.30
2022-09-17T05:48:58.003Z,95.25
2022-09-17T05:49:28.431Z,95.86
2022-09-17T05:49:59.328Z,95.30
2022-09-17T05:50:30.269Z,95.61
2022-09-17T05:51:01.188Z,95.71
2022-09-17T05:51:32.125Z,95.40
2022-09-17T05:52:03.195Z,94.64
2022-09-17T05:52:33.645Z,94.07
2022-09-17T05:53:04.531Z,93.86
2022-09-17T05:53:35.479Z,94.02
2022-09-17T05:54:06.407Z,94.02
2022-09-17T05:54:37.348Z,94.58
2022-09-17T05:55:08.476Z,94.58
2022-09-17T05:55:38.839Z,94.68
2022-09-17T05:56:09.677Z,95.30
2022-09-17T05:56:40.547Z,95.71
2022-09-17T05:57:11.426Z,95.56
2022-09-17T05:57:42.368Z,95.05
2022-09-17T05:58:13.501Z,94.58
2022-09-17T05:58:43.909Z,94.58
2022-09-17T05:59:14.855Z,94.84
2022-09-17T05:59:45.797Z,94.37
2022-09-17T06:00:16.720Z,94.12
2022-09-17T06:00:47.647Z,93.82
2022-09-17T06:01:18.761Z,94.43
2022-09-17T06:01:49.253Z,94.12
2022-09-17T06:02:19.694Z,93.76
2022-09-17T06:02:50.639Z,93.61
2022-09-17T06:03:21.713Z,93.86
2022-09-17T06:03:52.266Z,93.61
2022-09-17T06:04:23.310Z,93.76
2022-09-17T06:04:53.755Z,94.54
2022-09-17T06:05:24.691Z,95.46
2022-09-17T06:05:55.635Z,95.36
2022-09-17T06:06:26.512Z,95.09
2022-09-17T06:06:57.447Z,95.25
2022-09-17T06:07:28.506Z,95.15
2022-09-17T06:07:58.935Z,94.84
2022-09-17T06:08:29.842Z,94.84
2022-09-17T06:09:00.720Z,94.84
2022-09-17T06:09:31.594Z,94.95
2022-09-17T06:10:02.545Z,94.54
2022-09-17T06:10:33.656Z,94.33
2022-09-17T06:11:05.037Z,93.82
2022-09-17T06:11:34.590Z,93.92
2022-09-17T06:12:05.472Z,94.18
2022-09-17T06:12:36.333Z,93.61
2022-09-17T06:13:07.212Z,93.26
2022-09-17T06:13:38.285Z,93.20
2022-09-17T06:14:10.573Z,93.51
2022-09-17T06:14:39.512Z,94.23
2022-09-17T06:15:10.449Z,94.18
2022-09-17T06:15:41.378Z,94.33
2022-09-17T06:16:12.393Z,95.05
2022-09-17T06:16:43.297Z,95.36
2022-09-17T06:17:13.781Z,95.21
2022-09-17T06:17:44.708Z,93.92
2022-09-17T06:18:15.650Z,93.10
2022-09-17T06:18:46.711Z,92.74
2022-09-17T06:19:17.162Z,92.99
2022-09-17T06:19:48.301Z,93.36
2022-09-17T06:20:18.726Z,94.12
2022-09-17T06:20:49.642Z,93.67
2022-09-17T06:21:20.597Z,92.85
2022-09-17T06:21:51.436Z,92.69
2022-09-17T06:22:22.355Z,92.85
2022-09-17T06:22:53.490Z,92.89
2022-09-17T06:23:23.927Z,93.57
2022-09-17T06:23:54.803Z,94.43
2022-09-17T06:24:25.755Z,94.59
2022-09-17T06:24:56.699Z,94.90
2022-09-17T06:25:27.636Z,95.62
2022-09-17T06:25:58.742Z,94.49
2022-09-17T06:26:29.177Z,94.23
2022-09-17T06:27:00.105Z,94.14
2022-09-17T06:27:30.961Z,94.70
2022-09-17T06:28:01.834Z,94.80
2022-09-17T06:28:32.772Z,95.01
2022-09-17T06:29:03.846Z,94.18
2022-09-17T06:29:34.283Z,92.74
2022-09-17T06:30:05.158Z,91.41
2022-09-17T06:30:36.032Z,90.95
2022-09-17T06:31:07.013Z,91.20
2022-09-17T06:31:37.491Z,92.54
2022-09-17T06:32:08.408Z,91.93
2022-09-17T06:32:38.933Z,91.82
2022-09-17T06:33:09.853Z,93.16
2022-09-17T06:33:40.713Z,91.20
2022-09-17T06:34:11.789Z,91.31
2022-09-17T06:34:42.241Z,92.03
2022-09-17T06:35:13.376Z,92.23
2022-09-17T06:35:43.806Z,93.46
2022-09-17T06:36:14.975Z,93.05
2022-09-17T06:36:45.568Z,93.26
2022-09-17T06:37:16.439Z,92.64
2022-09-17T06:37:47.416Z,91.61